createdAt,value
2023-03-12T00:00:11.235Z,4.76
2023-03-12T00:05:12.974Z,5.66
2023-03-12T00:10:14.721Z,4.53
2023-03-12T00:15:16.652Z,5.92
2023-03-12T00:20:18.677Z,7.28
2023-03-12T00:25:21.278Z,8.20
2023-03-12T00:30:23.162Z,7.94
2023-03-12T00:35:25.884Z,5.72
2023-03-12T00:40:27.645Z,6.18
2023-03-12T00:45:29.451Z,6.29
2023-03-12T00:50:31.546Z,8.17
2023-03-12T00:55:33.353Z,6.44
2023-03-12T01:00:35.357Z,6.91
2023-03-12T01:05:38.057Z,5.80
2023-03-12T01:10:43.171Z,5.91
2023-03-12T01:15:44.885Z,6.67
2023-03-12T01:20:47.224Z,6.71
2023-03-12T01:25:49.556Z,8.34
2023-03-12T01:30:51.406Z,8.14
2023-03-12T01:35:53.355Z,7.67
2023-03-12T01:40:55.158Z,7.25
2023-03-12T01:46:21.579Z,8.77
2023-03-12T01:51:27.257Z,9.23
2023-03-12T01:56:33.710Z,9.59
2023-03-12T02:01:35.598Z,8.73
2023-03-12T02:06:57.057Z,9.12
2023-03-12T02:11:58.701Z,7.77
2023-03-12T02:17:00.629Z,7.99
2023-03-12T02:22:03.253Z,7.48
2023-03-12T02:27:06.754Z,6.77
2023-03-12T02:32:12.842Z,6.25
2023-03-12T02:37:14.849Z,8.07
2023-03-12T02:42:16.587Z,8.68
2023-03-12T02:47:18.310Z,8.16
2023-03-12T02:52:20.054Z,8.45
2023-03-12T02:57:21.719Z,9.76
2023-03-12T03:02:24.359Z,8.86
2023-03-12T03:07:26.171Z,7.95
2023-03-12T03:12:27.821Z,8.09
2023-03-12T03:17:29.593Z,8.65
2023-03-12T03:22:31.249Z,9.78
2023-03-12T03:27:32.988Z,9.34
2023-03-12T03:32:34.733Z,8.33
2023-03-12T03:37:36.417Z,8.71
2023-03-12T03:42:39.676Z,8.74
2023-03-12T03:47:41.403Z,7.65
2023-03-12T03:52:43.070Z,9.25
2023-03-12T03:57:44.678Z,9.32
2023-03-12T04:02:46.358Z,9.40
2023-03-12T04:07:48.119Z,7.66
2023-03-12T04:12:50.676Z,10.14
2023-03-12T04:17:52.347Z,8.06
2023-03-12T04:22:54.040Z,6.10
2023-03-12T04:27:55.818Z,4.39
2023-03-12T04:32:57.484Z,4.48
2023-03-12T04:38:01.982Z,3.81
2023-03-12T04:43:03.595Z,3.78
2023-03-12T04:48:06.291Z,4.29
2023-03-12T04:53:07.984Z,4.28
2023-03-12T04:58:09.910Z,5.57
2023-03-12T05:03:12.770Z,5.68
2023-03-12T05:08:14.575Z,7.62
2023-03-12T05:13:19.717Z,6.58
2023-03-12T05:18:21.626Z,7.98
2023-03-12T05:23:23.282Z,8.21
2023-03-12T05:28:28.584Z,7.14
2023-03-12T05:33:30.397Z,9.10
2023-03-12T05:38:32.158Z,8.60
2023-03-12T05:43:34.495Z,7.61
2023-03-12T05:48:36.075Z,7.59
2023-03-12T05:53:37.846Z,7.99
2023-03-12T05:58:40.132Z,8.11
2023-03-12T06:03:43.121Z,9.31
2023-03-12T06:08:45.114Z,9.05
2023-03-12T06:13:46.753Z,9.05
2023-03-12T06:18:48.703Z,9.07
2023-03-12T06:23:51.106Z,8.36
2023-03-12T06:28:53.144Z,9.34
2023-03-12T06:33:54.878Z,7.86
2023-03-12T06:38:57.304Z,7.08
2023-03-12T06:43:59.555Z,10.00
2023-03-12T06:49:01.209Z,7.70
2023-03-12T06:54:03.674Z,8.08
2023-03-12T06:59:05.596Z,10.49
2023-03-12T07:04:07.233Z,8.94
2023-03-12T07:09:09.009Z,7.48
2023-03-12T07:14:10.709Z,9.55
2023-03-12T07:19:12.273Z,8.03
2023-03-12T07:24:13.948Z,6.87
2023-03-12T07:29:15.535Z,6.74
2023-03-12T07:34:17.383Z,8.03
2023-03-12T07:39:19.531Z,10.23
2023-03-12T07:44:21.228Z,10.15
2023-03-12T07:49:22.923Z,9.94
2023-03-12T07:54:28.971Z,8.31
2023-03-12T07:59:30.559Z,9.90
2023-03-12T08:04:32.296Z,9.98
2023-03-12T08:09:34.817Z,8.19
2023-03-12T08:14:36.702Z,8.51
2023-03-12T08:19:38.444Z,7.21
2023-03-12T08:24:40.194Z,7.99
2023-03-12T08:29:42.431Z,6.60
2023-03-12T08:34:44.121Z,8.83
2023-03-12T08:39:45.888Z,9.43
2023-03-12T08:44:47.472Z,10.41
2023-03-12T08:49:49.080Z,9.57
2023-03-12T08:54:50.771Z,10.51
2023-03-12T08:59:52.383Z,10.19
2023-03-12T09:04:54.120Z,9.70
2023-03-12T09:09:55.734Z,11.34
2023-03-12T09:15:03.383Z,10.18
2023-03-12T09:20:09.446Z,10.80
2023-03-12T09:25:11.729Z,5.59
2023-03-12T09:30:19.338Z,8.06
2023-03-12T09:35:21.079Z,9.37
2023-03-12T09:40:25.660Z,10.54
2023-03-12T09:45:31.014Z,9.68
2023-03-12T09:50:40.211Z,9.01
2023-03-12T09:55:45.208Z,10.04
2023-03-12T10:00:47.670Z,8.99
2023-03-12T10:06:09.543Z,10.59
2023-03-12T10:11:43.606Z,10.15
2023-03-12T10:16:59.869Z,11.20
2023-03-12T10:22:05.623Z,11.04
2023-03-12T10:27:16.115Z,10.86
2023-03-12T10:32:40.529Z,11.90
2023-03-12T10:38:03.899Z,11.49
2023-03-12T10:43:07.161Z,11.75
2023-03-12T10:48:12.551Z,11.44
2023-03-12T10:53:22.639Z,12.53
2023-03-12T10:58:25.345Z,12.43
2023-03-12T11:06:33.616Z,7.58
2023-03-12T11:11:36.739Z,7.88
2023-03-12T11:16:38.496Z,8.67
2023-03-12T11:21:40.489Z,8.80
2023-03-12T11:26:51.469Z,9.65
2023-03-12T11:32:29.469Z,9.48
2023-03-12T11:37:56.117Z,10.35
2023-03-12T11:43:16.456Z,10.20
2023-03-12T11:48:36.754Z,10.42
2023-03-12T11:53:53.510Z,9.94
2023-03-12T11:59:34.664Z,10.82
2023-03-12T12:04:51.131Z,11.12
2023-03-12T12:10:16.086Z,11.15
2023-03-12T12:16:08.581Z,12.09
2023-03-12T12:21:10.190Z,11.28
2023-03-12T12:26:23.684Z,11.91
2023-03-12T12:31:34.542Z,11.90
2023-03-12T12:36:37.079Z,12.84
2023-03-12T12:41:53.837Z,11.68
2023-03-12T12:47:05.651Z,13.22
2023-03-12T12:52:11.414Z,11.71
2023-03-12T12:57:20.943Z,11.28
2023-03-12T13:02:29.468Z,12.69
2023-03-12T13:07:34.160Z,11.52
2023-03-12T13:12:55.970Z,14.12
2023-03-12T13:18:28.097Z,12.91
2023-03-12T13:23:39.250Z,13.96
2023-03-12T13:28:56.738Z,13.42
2023-03-12T13:34:19.392Z,14.64
2023-03-12T13:39:32.119Z,14.78
2023-03-12T13:44:36.570Z,14.76
2023-03-12T13:49:45.293Z,15.32
2023-03-12T13:54:57.516Z,14.09
2023-03-12T13:59:59.793Z,13.89
2023-03-12T14:05:08.137Z,14.06
2023-03-12T14:10:19.413Z,14.91
2023-03-12T14:15:26.850Z,13.99
2023-03-12T14:20:29.948Z,13.63
2023-03-12T14:25:38.836Z,15.24
2023-03-12T14:31:04.950Z,13.89
2023-03-12T14:36:16.950Z,13.97
2023-03-12T14:41:27.867Z,14.14
2023-03-12T14:46:29.564Z,14.28
2023-03-12T14:51:36.117Z,15.10
2023-03-12T14:56:43.957Z,15.76
2023-03-12T15:01:46.286Z,15.79
2023-03-12T15:06:54.356Z,15.70
2023-03-12T15:12:00.892Z,15.31
2023-03-12T15:17:04.550Z,14.97
2023-03-12T15:22:12.683Z,14.79
2023-03-12T15:27:30.478Z,14.19
2023-03-12T15:32:32.333Z,14.79
2023-03-12T15:37:40.896Z,14.42
2023-03-12T15:42:46.298Z,14.04
2023-03-12T15:47:49.607Z,15.07
2023-03-12T15:53:04.307Z,14.40
2023-03-12T15:58:26.185Z,14.89
2023-03-12T16:03:27.753Z,14.68
2023-03-12T16:08:38.178Z,14.54
2023-03-12T16:13:41.982Z,13.85
2023-03-12T16:18:44.036Z,13.76
2023-03-12T16:23:45.756Z,15.05
2023-03-12T16:28:48.294Z,15.58
2023-03-12T16:33:49.899Z,15.81
2023-03-12T16:38:51.510Z,16.42
2023-03-12T16:43:53.900Z,15.14
2023-03-12T16:48:55.694Z,15.93
2023-03-12T16:54:09.411Z,16.41
2023-03-12T16:59:27.377Z,16.36
2023-03-12T17:04:28.954Z,16.05
2023-03-12T17:09:30.563Z,16.09
2023-03-12T17:14:33.339Z,16.70
2023-03-12T17:19:34.882Z,15.65
2023-03-12T17:24:36.569Z,15.64
2023-03-12T17:29:38.123Z,16.74
2023-03-12T17:34:39.767Z,15.56
2023-03-12T17:39:41.597Z,15.96
2023-03-12T17:44:43.128Z,16.42
2023-03-12T17:49:44.777Z,16.29
2023-03-12T17:54:46.380Z,15.73
2023-03-12T17:59:47.931Z,15.43
2023-03-12T18:04:49.557Z,15.70
2023-03-12T18:09:52.437Z,15.61
2023-03-12T18:14:54.107Z,15.25
2023-03-12T18:19:55.684Z,15.58
2023-03-12T18:24:57.240Z,15.81
2023-03-12T18:29:58.852Z,15.39
2023-03-12T18:35:00.850Z,16.36
2023-03-12T18:40:02.428Z,15.56
2023-03-12T18:45:04.780Z,14.02
2023-03-12T18:50:07.605Z,15.28
2023-03-12T18:55:15.225Z,15.74
2023-03-12T19:00:18.164Z,15.57
2023-03-12T19:05:19.870Z,15.53
2023-03-12T19:10:21.450Z,15.47
2023-03-12T19:15:26.806Z,14.81
2023-03-12T19:20:28.408Z,15.17
2023-03-12T19:25:30.176Z,15.56
2023-03-12T19:30:33.550Z,14.50
2023-03-12T19:35:41.766Z,15.50
2023-03-12T19:40:53.215Z,14.45
2023-03-12T19:45:56.626Z,14.72
2023-03-12T19:51:05.242Z,15.38
2023-03-12T19:56:07.265Z,15.93
2023-03-12T20:01:09.091Z,15.88
2023-03-12T20:06:11.859Z,15.66
2023-03-12T20:11:13.479Z,15.94
2023-03-12T20:16:15.167Z,14.99
2023-03-12T20:21:16.933Z,14.95
2023-03-12T20:26:18.560Z,15.39
2023-03-12T20:31:20.320Z,14.61
2023-03-12T20:36:22.044Z,15.24
2023-03-12T20:41:23.717Z,14.95
2023-03-12T20:46:25.507Z,15.17
2023-03-12T20:51:27.168Z,15.55
2023-03-12T20:56:28.941Z,14.29
2023-03-12T21:01:30.626Z,15.05
2023-03-12T21:06:32.877Z,14.61
2023-03-12T21:11:34.714Z,14.94
2023-03-12T21:16:36.689Z,15.00
2023-03-12T21:21:38.473Z,15.29
2023-03-12T21:26:40.052Z,15.33
2023-03-12T21:31:41.860Z,14.86
2023-03-12T21:36:43.434Z,13.67
2023-03-12T21:41:45.104Z,15.27
2023-03-12T21:46:46.729Z,14.27
2023-03-12T21:51:48.305Z,14.72
2023-03-12T21:56:49.976Z,15.73
2023-03-12T22:01:51.742Z,13.18
2023-03-12T22:06:53.517Z,13.41
2023-03-12T22:11:55.310Z,13.84
2023-03-12T22:16:56.949Z,14.87
2023-03-12T22:21:58.528Z,13.49
2023-03-12T22:27:01.760Z,14.59
2023-03-12T22:32:03.562Z,14.32
2023-03-12T22:37:05.183Z,14.98
2023-03-12T22:42:06.946Z,15.04
2023-03-12T22:47:08.852Z,14.82
2023-03-12T22:52:10.558Z,15.07
2023-03-12T22:57:12.163Z,14.67
2023-03-12T23:02:13.812Z,16.01
2023-03-12T23:07:17.216Z,14.01
2023-03-12T23:12:19.338Z,13.71
2023-03-12T23:17:21.397Z,15.14
2023-03-12T23:22:23.097Z,13.20
2023-03-12T23:27:24.927Z,14.69
2023-03-12T23:32:26.635Z,14.67
2023-03-12T23:37:28.276Z,13.98
2023-03-12T23:42:29.959Z,14.78
2023-03-12T23:47:31.615Z,13.90
2023-03-12T23:52:33.266Z,14.87
2023-03-12T23:57:35.009Z,12.84
